Time;durP1;ratioP1;P1;durP2;ratioP2;P2;SDS_P1;SDS_P2;PMS_P1;PMS_P2;Temp;Humidity;BMP_temperature;BMP_pressure;BME280_temperature;BME280_humidity;BME280_pressure;Samples;Min_cycle;Max_cycle;Signal;HPM_P1;HPM_P2
2022/03/17 00:00:51;;;;;;;21.42;19.23;;;;;;;9.52;nan;101879.94;5050818;28;20035;-60
2022/03/17 00:03:16;;;;;;;21.80;19.55;;;;;;;9.49;nan;101883.28;5050142;28;20021;-62
2022/03/17 00:05:42;;;;;;;20.48;18.48;;;;;;;9.52;nan;101892.88;5051131;28;20493;-62
2022/03/17 00:08:08;;;;;;;22.38;20.08;;;;;;;9.53;nan;101889.50;5051093;28;20047;-61
2022/03/17 00:10:33;;;;;;;21.02;19.00;;;;;;;9.52;nan;101904.13;5050417;28;20017;-62
2022/03/17 00:12:58;;;;;;;21.45;19.25;;;;;;;9.50;nan;101890.22;5050427;28;20028;-60
2022/03/17 00:15:24;;;;;;;21.65;19.25;;;;;;;9.47;nan;101892.63;5049691;28;20481;-61
2022/03/17 00:17:49;;;;;;;20.48;18.48;;;;;;;9.46;nan;101885.69;5050314;28;20028;-61
2022/03/17 00:20:14;;;;;;;22.60;20.23;;;;;;;9.44;nan;101882.13;5050209;28;20048;-61
2022/03/17 00:22:40;;;;;;;21.00;19.00;;;;;;;9.43;nan;101888.09;5049047;28;20094;-61
2022/03/17 00:25:07;;;;;;;20.70;18.73;;;;;;;9.44;nan;101884.72;5031988;28;20028;-59
2022/03/17 00:27:33;;;;;;;21.08;19.00;;;;;;;9.43;nan;101880.34;5049399;28;20536;-61
2022/03/17 00:29:58;;;;;;;21.08;18.98;;;;;;;9.43;nan;101888.09;5050029;28;20061;-62
2022/03/17 00:32:24;;;;;;;21.33;19.10;;;;;;;9.43;nan;101888.09;5049689;28;20110;-61
2022/03/17 00:37:34;;;;;;;20.63;18.63;;;;;;;9.41;nan;101887.16;5049369;28;20035;-61
2022/03/17 00:40:00;;;;;;;20.90;18.83;;;;;;;9.40;nan;101882.78;5049196;28;20567;-62
2022/03/17 00:42:27;;;;;;;21.20;19.08;;;;;;;9.39;nan;101887.03;5049774;28;20124;-62
2022/03/17 00:44:54;;;;;;;20.23;18.15;;;;;;;9.35;nan;101880.81;5049269;28;20028;-61
2022/03/17 00:47:20;;;;;;;21.55;19.33;;;;;;;9.36;nan;101876.53;5049094;28;20056;-61
2022/03/17 00:49:45;;;;;;;20.95;18.80;;;;;;;9.40;nan;101888.84;5031444;28;20100;-61
2022/03/17 00:52:11;;;;;;;22.50;19.58;;;;;;;9.38;nan;101895.63;5048910;28;20036;-61
2022/03/17 00:54:39;;;;;;;21.00;18.85;;;;;;;9.37;nan;101897.31;5049641;28;20025;-62
2022/03/17 00:57:04;;;;;;;20.77;18.58;;;;;;;9.38;nan;101895.63;5049141;28;20021;-62
2022/03/17 00:59:29;;;;;;;20.52;18.42;;;;;;;9.37;nan;101902.50;5048354;28;20411;-61
2022/03/17 01:01:54;;;;;;;20.48;18.38;;;;;;;9.40;nan;101899.19;5048794;28;20073;-60
2022/03/17 01:04:20;;;;;;;23.30;20.88;;;;;;;9.41;nan;101897.50;5048907;28;20498;-61
2022/03/17 01:06:45;;;;;;;23.00;20.48;;;;;;;9.41;nan;101898.38;5049461;28;20029;-61
2022/03/17 01:09:10;;;;;;;20.15;18.15;;;;;;;9.41;nan;101905.25;5049527;28;20025;-61
2022/03/17 01:11:35;;;;;;;20.88;18.85;;;;;;;9.43;nan;101901.03;5049267;28;20477;-61
2022/03/17 01:14:01;;;;;;;21.65;19.35;;;;;;;9.44;nan;101903.72;5048688;28;20036;-62
2022/03/17 01:16:26;;;;;;;21.42;19.30;;;;;;;9.46;nan;101901.22;5048837;28;20020;-62
2022/03/17 01:18:51;;;;;;;21.92;19.75;;;;;;;9.44;nan;101898.56;5049428;28;20043;-61
2022/03/17 01:21:16;;;;;;;21.98;19.77;;;;;;;9.43;nan;101894.19;5049222;28;20031;-62
2022/03/17 01:23:42;;;;;;;21.92;19.75;;;;;;;9.43;nan;101893.28;5049049;28;20054;-61
2022/03/17 01:26:07;;;;;;;22.38;20.08;;;;;;;9.45;nan;101892.56;5049637;28;20380;-61
2022/03/17 01:28:32;;;;;;;22.58;20.05;;;;;;;9.46;nan;101883.13;5048215;28;20328;-61
2022/03/17 01:30:58;;;;;;;22.73;20.33;;;;;;;9.47;nan;101874.53;5048772;28;20025;-61
2022/03/17 01:33:23;;;;;;;21.58;19.33;;;;;;;9.50;nan;101890.22;5048753;28;20021;-61
2022/03/17 01:35:48;;;;;;;21.75;19.40;;;;;;;9.49;nan;101888.44;5049047;28;20110;-61
2022/03/17 01:38:13;;;;;;;21.90;19.20;;;;;;;9.49;nan;101888.44;5049214;28;20104;-62
2022/03/17 01:40:39;;;;;;;20.85;18.85;;;;;;;9.52;nan;101896.34;5048710;28;20028;-59
2022/03/17 01:43:04;;;;;;;22.10;19.65;;;;;;;9.53;nan;101894.69;5048811;28;20099;-62
2022/03/17 01:45:29;;;;;;;23.50;19.55;;;;;;;9.54;nan;101886.09;5049085;28;20160;-61
2022/03/17 01:47:55;;;;;;;22.02;19.70;;;;;;;9.56;nan;101885.38;5048946;28;20043;-61
2022/03/17 01:50:21;;;;;;;21.13;19.00;;;;;;;9.58;nan;101883.75;5048449;28;20107;-61
2022/03/17 01:52:46;;;;;;;23.02;20.00;;;;;;;9.59;nan;101890.69;5048639;28;20029;-62
2022/03/17 01:55:13;;;;;;;22.90;20.50;;;;;;;9.57;nan;101887.13;5048669;28;20424;-61
2022/03/17 01:57:39;;;;;;;22.08;18.88;;;;;;;9.60;nan;101894.19;5048437;28;20076;-59
2022/03/17 02:00:07;;;;;;;24.20;19.25;;;;;;;9.60;nan;101887.31;5048434;28;20045;-62
2022/03/17 02:02:32;;;;;;;21.98;19.65;;;;;;;9.63;nan;101886.59;5048265;28;20108;-60
2022/03/17 02:04:57;;;;;;;21.60;19.38;;;;;;;9.65;nan;101884.06;5048444;28;20024;-61
2022/03/17 02:07:23;;;;;;;23.55;20.98;;;;;;;9.65;nan;101886.66;5048066;28;20408;-61
2022/03/17 02:09:49;;;;;;;21.58;19.30;;;;;;;9.69;nan;101878.25;5048563;28;20025;-61
2022/03/17 02:15:05;;;;;;;25.10;19.08;;;;;;;9.72;nan;101886.16;5048367;28;20566;-60
2022/03/17 02:17:33;;;;;;;21.85;19.42;;;;;;;9.72;nan;101883.59;5048119;28;20025;-60
2022/03/17 02:20:00;;;;;;;22.55;18.30;;;;;;;9.75;nan;101896.69;5048215;28;20032;-61
2022/03/17 02:22:27;;;;;;;23.33;20.10;;;;;;;9.77;nan;101895.06;5048868;28;20108;-61
2022/03/17 02:27:47;;;;;;;20.80;18.50;;;;;;;9.75;nan;101895.81;5048338;28;20421;-62
2022/03/17 02:30:16;;;;;;;23.08;19.60;;;;;;;9.76;nan;101901.06;5047719;28;20025;-61
2022/03/17 02:32:42;;;;;;;24.92;20.92;;;;;;;9.74;nan;101907.84;5048591;28;20024;-62
2022/03/17 02:35:13;;;;;;;22.83;20.30;;;;;;;9.73;nan;101912.13;5048235;28;20465;-62
2022/03/17 02:37:39;;;;;;;22.15;19.70;;;;;;;9.77;nan;101918.38;5048318;28;20025;-60
2022/03/17 02:40:10;;;;;;;23.83;21.20;;;;;;;9.77;nan;101918.38;5048144;28;20029;-62
2022/03/17 02:42:37;;;;;;;23.13;20.52;;;;;;;9.80;nan;101926.31;5048459;28;20190;-61
2022/03/17 02:45:04;;;;;;;24.52;20.63;;;;;;;9.79;nan;101919.34;5047847;28;20028;-61
2022/03/17 02:47:30;;;;;;;23.95;20.50;;;;;;;9.79;nan;101929.69;5048575;28;20518;-61
2022/03/17 02:49:56;;;;;;;23.08;20.55;;;;;;;9.80;nan;101921.13;5048226;28;20028;-61
2022/03/17 02:52:22;;;;;;;24.90;22.40;;;;;;;9.82;nan;101926.38;5047251;28;20029;-61
2022/03/17 02:54:48;;;;;;;24.55;21.88;;;;;;;9.82;nan;101929.84;5047839;28;20423;-61
2022/03/17 02:57:13;;;;;;;28.67;22.73;;;;;;;9.83;nan;101939.41;5047841;28;20025;-61
2022/03/17 02:59:38;;;;;;;29.88;23.80;;;;;;;9.88;nan;101938.75;5047957;28;20049;-62
2022/03/17 03:02:05;;;;;;;26.75;23.88;;;;;;;9.88;nan;101951.69;5047948;28;20082;-60
2022/03/17 03:04:34;;;;;;;28.17;24.95;;;;;;;9.89;nan;101963.84;5047281;28;20032;-62
2022/03/17 03:07:02;;;;;;;29.55;25.08;;;;;;;9.87;nan;101962.88;5047704;28;20079;-61
2022/03/17 03:09:28;;;;;;;29.60;26.15;;;;;;;9.85;nan;101955.03;5047590;28;20075;-61
2022/03/17 03:11:53;;;;;;;31.13;27.33;;;;;;;9.85;nan;101970.56;5048037;28;20028;-61
2022/03/17 03:14:19;;;;;;;34.58;29.45;;;;;;;9.86;nan;101977.50;5047834;28;20036;-61
2022/03/17 03:16:44;;;;;;;28.92;25.88;;;;;;;9.85;nan;101992.16;5047660;28;20021;-62
2022/03/17 03:19:10;;;;;;;27.25;24.48;;;;;;;9.85;nan;101992.16;5047433;28;20492;-60
2022/03/17 03:21:35;;;;;;;25.38;22.13;;;;;;;9.82;nan;102010.09;5047335;28;20079;-61
2022/03/17 03:24:00;;;;;;;24.13;21.33;;;;;;;9.79;nan;102012.53;5047599;28;20065;-61
2022/03/17 03:26:26;;;;;;;20.88;18.85;;;;;;;9.76;nan;102021.84;5047610;28;20417;-60
2022/03/17 03:28:52;;;;;;;18.85;17.05;;;;;;;9.71;nan;102016.41;5047694;28;20079;-60
2022/03/17 03:31:17;;;;;;;17.70;15.90;;;;;;;9.66;nan;102035.97;5047841;28;20112;-60
2022/03/17 03:33:42;;;;;;;12.88;11.65;;;;;;;9.59;nan;102030.44;5051261;28;20037;-61
2022/03/17 03:38:52;;;;;;;11.65;10.57;;;;;;;9.44;nan;102040.88;5068394;28;20043;-61
2022/03/17 03:41:17;;;;;;;11.15;10.05;;;;;;;9.36;nan;102045.59;5070997;28;20024;-61
2022/03/17 03:43:42;;;;;;;11.48;10.48;;;;;;;9.31;nan;102047.03;5052763;28;20518;-62
2022/03/17 03:46:08;;;;;;;12.35;11.18;;;;;;;9.25;nan;102055.34;5071137;28;20033;-61
2022/03/17 03:48:34;;;;;;;12.52;11.32;;;;;;;9.19;nan;102064.44;5070782;28;20025;-62
2022/03/17 03:50:59;;;;;;;12.23;11.07;;;;;;;9.15;nan;102062.47;5070715;28;20025;-61
2022/03/17 03:54:12;;;;;;;13.82;12.60;;;;;;;9.11;nan;102075.25;5069742;28;20089;-61
2022/03/17 03:56:10;;;;;;;14.20;12.90;;;;;;;9.07;nan;102087.88;5070258;28;20043;-62
2022/03/17 03:58:35;;;;;;;15.50;14.02;;;;;;;9.05;nan;102098.13;5070261;28;20484;-62
2022/03/17 04:01:00;;;;;;;20.75;18.85;;;;;;;8.99;nan;102110.72;5070282;28;20074;-61
2022/03/17 04:03:26;;;;;;;24.30;21.83;;;;;;;8.93;nan;102112.94;5070018;28;20115;-61
2022/03/17 04:05:51;;;;;;;26.25;23.60;;;;;;;8.88;nan;102123.91;5069417;28;20415;-61
2022/03/17 04:08:17;;;;;;;24.70;22.35;;;;;;;8.80;nan;102132.88;5070102;28;20055;-61
2022/03/17 04:10:42;;;;;;;25.45;22.77;;;;;;;8.74;nan;102135.13;5069886;28;20052;-61
2022/03/17 04:13:07;;;;;;;23.98;21.45;;;;;;;8.67;nan;102145.88;5070181;28;20036;-61
2022/03/17 04:15:32;;;;;;;24.27;21.58;;;;;;;8.59;nan;102153.16;5070116;28;20028;-59
2022/03/17 04:17:58;;;;;;;23.38;20.92;;;;;;;8.54;nan;102165.75;5069698;28;20088;-62
2022/03/17 04:20:23;;;;;;;24.25;21.70;;;;;;;8.48;nan;102167.94;5069467;28;20468;-61
2022/03/17 04:22:48;;;;;;;23.25;20.65;;;;;;;8.43;nan;102175.44;5069722;28;20039;-61
2022/03/17 04:25:13;;;;;;;22.92;20.50;;;;;;;8.39;nan;102182.09;5051532;28;20054;-61
2022/03/17 04:27:40;;;;;;;22.75;19.67;;;;;;;8.36;nan;102191.34;5069828;28;20071;-61
2022/03/17 04:30:06;;;;;;;19.00;17.00;;;;;;;8.32;nan;102204.84;5069304;28;20024;-61
2022/03/17 04:32:31;;;;;;;18.17;16.27;;;;;;;8.23;nan;102200.91;5069209;28;20047;-61
2022/03/17 04:34:56;;;;;;;17.30;15.40;;;;;;;8.20;nan;102204.97;5069454;28;20029;-61
2022/03/17 04:37:22;;;;;;;19.95;15.50;;;;;;;8.16;nan;102224.53;5069509;28;20017;-61
2022/03/17 04:39:47;;;;;;;21.42;15.05;;;;;;;8.13;nan;102230.38;5069475;28;20051;-60
2022/03/17 04:42:12;;;;;;;19.55;15.43;;;;;;;8.08;nan;102236.06;5068826;28;20135;-61
2022/03/17 04:44:38;;;;;;;18.98;16.17;;;;;;;8.01;nan;102246.00;5069682;28;20107;-61
2022/03/17 04:47:03;;;;;;;19.42;16.38;;;;;;;7.98;nan;102248.38;5069565;28;20032;-61
2022/03/17 04:49:29;;;;;;;23.05;16.20;;;;;;;7.95;nan;102260.19;5068332;28;20032;-61
2022/03/17 04:51:54;;;;;;;23.65;18.25;;;;;;;7.92;nan;102266.94;5068793;28;20020;-60
2022/03/17 04:54:19;;;;;;;25.67;17.77;;;;;;;7.89;nan;102274.50;5069082;28;20063;-61
2022/03/17 04:56:44;;;;;;;21.35;17.55;;;;;;;7.88;nan;102274.38;5069329;28;20385;-61
2022/03/17 04:59:10;;;;;;;24.63;17.65;;;;;;;7.83;nan;102286.97;5051046;28;20722;-61
2022/03/17 05:01:35;;;;;;;23.67;18.23;;;;;;;7.82;nan;102290.34;5068845;28;20058;-61
2022/03/17 05:04:00;;;;;;;23.42;19.40;;;;;;;7.83;nan;102288.66;5068157;28;20082;-60
2022/03/17 05:06:26;;;;;;;28.38;21.50;;;;;;;7.81;nan;102310.09;5069094;28;20047;-61
2022/03/17 05:08:51;;;;;;;24.50;21.20;;;;;;;7.84;nan;102308.53;5069317;28;20107;-62
2022/03/17 05:11:16;;;;;;;23.25;18.25;;;;;;;7.77;nan;102317.53;5068478;28;20035;-61
2022/03/17 05:13:43;;;;;;;21.00;17.38;;;;;;;7.75;nan;102329.44;5068715;28;20051;-61
2022/03/17 05:16:09;;;;;;;18.38;14.52;;;;;;;7.73;nan;102341.34;5068053;28;20388;-61
2022/03/17 05:18:34;;;;;;;16.95;12.68;;;;;;;7.66;nan;102351.22;5068667;28;20109;-59
2022/03/17 05:21:00;;;;;;;14.00;9.60;;;;;;;7.63;nan;102353.63;5068640;28;20506;-62
2022/03/17 05:23:25;;;;;;;14.88;9.38;;;;;;;7.61;nan;102368.09;5068370;28;20045;-61
2022/03/17 05:25:52;;;;;;;15.65;8.27;;;;;;;7.61;nan;102374.97;5068398;28;20131;-61
2022/03/17 05:28:17;;;;;;;12.57;6.78;;;;;;;7.55;nan;102393.47;5068405;28;20024;-60
2022/03/17 05:30:44;;;;;;;12.10;6.35;;;;;;;7.54;nan;102381.34;5068904;28;20028;-61
2022/03/17 05:33:11;;;;;;;11.52;5.60;;;;;;;7.51;nan;102391.47;5068066;28;20025;-62
2022/03/17 05:35:37;;;;;;;9.82;5.45;;;;;;;7.48;nan;102393.84;5068299;28;20040;-61
2022/03/17 05:38:02;;;;;;;9.07;4.60;;;;;;;7.45;nan;102391.94;5068175;28;20178;-61
2022/03/17 05:40:28;;;;;;;11.00;4.32;;;;;;;7.44;nan;102405.63;5068213;28;20032;-61
2022/03/17 05:42:56;;;;;;;11.35;5.00;;;;;;;7.40;nan;102414.84;5068566;28;20036;-59
2022/03/17 05:45:24;;;;;;;13.30;4.78;;;;;;;7.39;nan;102422.47;5068357;28;20028;-60
2022/03/17 05:47:51;;;;;;;10.32;4.18;;;;;;;7.37;nan;102437.84;5067691;28;20028;-60
2022/03/17 05:50:20;;;;;;;11.00;4.63;;;;;;;7.35;nan;102439.41;5068198;28;20082;-61
2022/03/17 05:52:46;;;;;;;10.65;4.47;;;;;;;7.33;nan;102449.63;5068162;28;20029;-60
2022/03/17 05:55:12;;;;;;;9.15;4.32;;;;;;;7.33;nan;102453.88;5067479;28;20430;-61
2022/03/17 05:57:41;;;;;;;8.80;4.80;;;;;;;7.32;nan;102452.09;5067266;28;20086;-60
2022/03/17 06:00:10;;;;;;;8.88;4.43;;;;;;;7.31;nan;102463.19;5067884;28;20052;-61
2022/03/17 06:02:36;;;;;;;7.57;4.55;;;;;;;7.32;nan;102468.44;5067507;28;20334;-61
2022/03/17 06:05:02;;;;;;;10.38;4.82;;;;;;;7.32;nan;102467.56;5066045;28;20020;-59
2022/03/17 06:07:45;;;;;;;9.38;4.30;;;;;;;7.31;nan;102476.06;5066111;28;20032;-60
2022/03/17 06:10:15;;;;;;;8.23;4.00;;;;;;;7.29;nan;102477.66;5047220;28;20059;-61
2022/03/17 06:12:43;;;;;;;8.20;2.95;;;;;;;7.27;nan;102494.69;5065922;28;20028;-61
2022/03/17 06:15:09;;;;;;;5.70;3.53;;;;;;;7.23;nan;102496.19;5066537;28;20492;-61
2022/03/17 06:17:41;;;;;;;7.65;2.90;;;;;;;7.19;nan;102505.38;5067691;28;20027;-61
2022/03/17 06:20:12;;;;;;;7.68;2.53;;;;;;;7.18;nan;102513.88;5067258;28;20020;-62
2022/03/17 06:22:42;;;;;;;7.38;2.50;;;;;;;7.16;nan;102523.16;5067757;28;20034;-61
2022/03/17 06:25:09;;;;;;;7.13;2.80;;;;;;;7.14;nan;102521.28;5068186;28;20048;-61
2022/03/17 06:27:35;;;;;;;6.93;3.00;;;;;;;7.14;nan;102529.88;5067643;28;20111;-61
2022/03/17 06:30:04;;;;;;;7.95;3.25;;;;;;;7.15;nan;102536.84;5068156;28;20107;-61
2022/03/17 06:32:29;;;;;;;8.23;3.30;;;;;;;7.14;nan;102544.50;5067718;28;20068;-61
2022/03/17 06:34:54;;;;;;;7.07;3.08;;;;;;;7.14;nan;102549.66;5056540;28;20057;-61
2022/03/17 06:37:20;;;;;;;7.28;2.80;;;;;;;7.15;nan;102557.50;5047570;28;20029;-61
2022/03/17 06:39:45;;;;;;;5.68;2.92;;;;;;;7.14;nan;102558.25;5047476;28;20029;-61
2022/03/17 06:42:10;;;;;;;7.88;2.78;;;;;;;7.13;nan;102569.38;5047934;28;20106;-59
2022/03/17 06:44:35;;;;;;;7.07;3.35;;;;;;;7.13;nan;102578.78;5047435;28;20070;-61
2022/03/17 06:47:01;;;;;;;9.63;3.50;;;;;;;7.07;nan;102590.44;5047555;28;20040;-62
2022/03/17 06:49:26;;;;;;;6.28;2.40;;;;;;;7.07;nan;102594.69;5047122;28;20543;-61
2022/03/17 06:51:51;;;;;;;5.55;2.47;;;;;;;7.05;nan;102591.13;5047224;28;20056;-61
2022/03/17 06:54:16;;;;;;;6.20;2.58;;;;;;;7.05;nan;102596.28;5047838;28;20043;-61
2022/03/17 06:56:42;;;;;;;4.70;2.25;;;;;;;7.05;nan;102602.31;5046645;28;20492;-60
2022/03/17 06:59:07;;;;;;;6.75;2.47;;;;;;;7.05;nan;102604.00;5047455;28;20048;-61
2022/03/17 07:01:32;;;;;;;9.77;2.60;;;;;;;7.05;nan;102610.03;5046585;28;20036;-61
2022/03/17 07:03:57;;;;;;;5.63;2.08;;;;;;;7.08;nan;102612.88;5046755;28;20621;-60
2022/03/17 07:06:23;;;;;;;6.60;2.10;;;;;;;7.09;nan;102627.53;5054076;28;20033;-59
2022/03/17 07:08:48;;;;;;;5.60;1.90;;;;;;;7.07;nan;102623.03;5050450;28;20056;-61
2022/03/17 07:11:13;;;;;;;6.72;1.90;;;;;;;7.09;nan;102632.69;5051251;28;20481;-61
2022/03/17 07:13:38;;;;;;;8.70;1.80;;;;;;;7.07;nan;102635.94;5051000;28;20028;-61
2022/03/17 07:16:04;;;;;;;5.47;1.60;;;;;;;7.08;nan;102650.63;5050840;28;20029;-61
2022/03/17 07:18:29;;;;;;;5.30;1.63;;;;;;;7.07;nan;102651.41;5052224;28;20028;-59
2022/03/17 07:20:57;;;;;;;9.13;1.30;;;;;;;7.06;nan;102653.09;5051532;28;20129;-61
2022/03/17 07:23:23;;;;;;;4.72;2.28;;;;;;;7.06;nan;102659.94;5059282;28;20488;-60
2022/03/17 07:25:48;;;;;;;5.45;1.90;;;;;;;7.04;nan;102661.47;5050785;28;20031;-61
2022/03/17 07:28:15;;;;;;;10.38;1.55;;;;;;;7.03;nan;102680.31;5060426;28;20100;-61
2022/03/17 07:30:41;;;;;;;8.02;1.60;;;;;;;7.01;nan;102672.47;5052557;28;20131;-60
2022/03/17 07:33:06;;;;;;;5.13;1.33;;;;;;;7.00;nan;102682.69;5049834;28;20313;-60
2022/03/17 07:35:33;;;;;;;6.35;1.80;;;;;;;6.97;nan;102691.97;5050750;28;20037;-61
2022/03/17 07:37:58;;;;;;;6.47;1.80;;;;;;;6.97;nan;102691.06;5050727;28;20048;-61
2022/03/17 07:40:24;;;;;;;7.50;2.03;;;;;;;6.96;nan;102705.63;5055466;28;20785;-61
2022/03/17 07:42:49;;;;;;;6.32;1.75;;;;;;;6.95;nan;102711.56;5048995;28;20036;-61
2022/03/17 07:45:15;;;;;;;4.78;1.65;;;;;;;6.97;nan;102719.41;5048883;28;20032;-61
2022/03/17 07:47:47;;;;;;;6.47;1.70;;;;;;;6.96;nan;102712.47;5049668;28;20036;-59
2022/03/17 07:50:13;;;;;;;5.95;1.60;;;;;;;6.99;nan;102724.69;5049871;28;20534;-62
2022/03/17 07:52:39;;;;;;;9.48;1.90;;;;;;;6.98;nan;102721.19;5047549;28;20294;-60
2022/03/17 07:55:05;;;;;;;7.25;1.83;;;;;;;7.00;nan;102732.53;5050146;28;20040;-58
2022/03/17 07:57:31;;;;;;;7.07;1.83;;;;;;;7.00;nan;102737.69;5049214;28;20020;-61
2022/03/17 07:59:57;;;;;;;7.47;2.00;;;;;;;7.02;nan;102735.22;5049189;28;20045;-60
2022/03/17 08:02:22;;;;;;;9.50;1.92;;;;;;;7.03;nan;102742.19;5048144;28;20029;-61
2022/03/17 08:04:50;;;;;;;9.80;2.42;;;;;;;7.02;nan;102746.44;5051490;28;20454;-60
2022/03/17 08:07:15;;;;;;;9.50;1.67;;;;;;;7.03;nan;102750.84;5049468;28;20557;-61
2022/03/17 08:09:41;;;;;;;10.27;1.77;;;;;;;7.05;nan;102758.69;5049493;28;20127;-61
2022/03/17 08:12:06;;;;;;;10.23;2.03;;;;;;;7.06;nan;102752.75;5048159;28;20130;-61
2022/03/17 08:14:31;;;;;;;7.53;1.95;;;;;;;7.08;nan;102769.22;5050390;28;20491;-61
2022/03/17 08:16:57;;;;;;;13.80;2.13;;;;;;;7.10;nan;102762.50;5047707;28;20099;-60
2022/03/17 08:19:22;;;;;;;12.30;2.20;;;;;;;7.09;nan;102769.34;5048120;28;20143;-60
2022/03/17 08:21:47;;;;;;;6.63;1.63;;;;;;;7.10;nan;102775.41;5049193;28;20039;-61
2022/03/17 08:24:13;;;;;;;11.32;2.13;;;;;;;7.13;nan;102780.78;5048339;28;20029;-60
2022/03/17 08:26:39;;;;;;;10.43;1.95;;;;;;;7.12;nan;102789.31;5048341;28;20024;-60
2022/03/17 08:29:05;;;;;;;5.97;1.60;;;;;;;7.13;nan;102796.25;5050885;28;20480;-60
2022/03/17 08:31:31;;;;;;;6.72;1.58;;;;;;;7.13;nan;102803.09;5053702;28;20032;-60
2022/03/17 08:33:56;;;;;;;9.15;2.25;;;;;;;7.15;nan;102804.13;5048733;28;20028;-60
2022/03/17 08:36:26;;;;;;;6.40;1.52;;;;;;;7.18;nan;102818.16;5048989;28;20067;-59
2022/03/17 08:38:51;;;;;;;11.65;2.25;;;;;;;7.25;nan;102816.06;5048605;28;20047;-61
2022/03/17 08:41:17;;;;;;;9.07;1.80;;;;;;;7.30;nan;102825.94;5066698;28;20028;-61
2022/03/17 08:43:43;;;;;;;8.43;1.60;;;;;;;7.40;nan;102826.66;5058108;28;20081;-61
2022/03/17 08:51:35;;;;;;;6.22;1.80;;;;;;;7.50;nan;102839.47;5066975;28;20039;-60
2022/03/17 08:54:01;;;;;;;6.50;2.03;;;;;;;7.50;nan;102848.91;5056262;28;20509;-61
2022/03/17 08:56:28;;;;;;;10.13;1.90;;;;;;;7.50;nan;102848.91;5052039;28;20039;-61
2022/03/17 08:58:54;;;;;;;9.93;1.88;;;;;;;7.52;nan;102857.66;5052017;28;20107;-60
2022/03/17 09:01:19;;;;;;;7.18;1.42;;;;;;;7.54;nan;102853.50;5048637;28;20025;-61
2022/03/17 09:03:44;;;;;;;14.65;1.60;;;;;;;7.57;nan;102861.50;5055589;28;20039;-61
2022/03/17 09:06:11;;;;;;;7.00;2.30;;;;;;;7.59;nan;102857.31;5048990;28;20033;-59
2022/03/17 09:08:36;;;;;;;6.30;1.50;;;;;;;7.61;nan;102866.09;5047979;28;20020;-60
2022/03/17 09:11:01;;;;;;;4.50;1.50;;;;;;;7.62;nan;102869.56;5048638;28;20079;-60
2022/03/17 09:13:28;;;;;;;9.98;1.85;;;;;;;7.59;nan;102870.22;5047380;28;20036;-60
2022/03/17 09:15:54;;;;;;;9.43;1.52;;;;;;;7.60;nan;102876.28;5055436;28;20434;-61
2022/03/17 09:18:21;;;;;;;8.98;1.73;;;;;;;7.59;nan;102880.53;5064475;28;20021;-59
2022/03/17 09:20:47;;;;;;;8.18;1.88;;;;;;;7.59;nan;102887.41;5048386;28;20380;-61
2022/03/17 09:23:12;;;;;;;7.05;1.60;;;;;;;7.56;nan;102890.63;5047945;28;20043;-61
2022/03/17 09:25:38;;;;;;;8.48;1.80;;;;;;;7.57;nan;102902.78;5047197;28;20133;-60
2022/03/17 09:28:04;;;;;;;8.20;1.65;;;;;;;7.59;nan;102910.63;5052841;28;20404;-61
2022/03/17 09:30:29;;;;;;;8.88;1.73;;;;;;;7.60;nan;102909.84;5047243;28;20068;-60
2022/03/17 09:32:55;;;;;;;9.10;1.98;;;;;;;7.62;nan;102910.88;5060749;28;20385;-61
2022/03/17 09:35:22;;;;;;;10.90;2.10;;;;;;;7.65;nan;102917.16;5067985;28;20057;-61
2022/03/17 09:37:48;;;;;;;7.95;1.65;;;;;;;7.69;nan;102905.41;5066780;28;20449;-60
2022/03/17 09:40:13;;;;;;;9.77;1.95;;;;;;;7.72;nan;102918.53;5048151;28;20059;-61
2022/03/17 09:42:39;;;;;;;8.38;1.90;;;;;;;7.77;nan;102918.91;5047867;28;20151;-60
2022/03/17 09:45:06;;;;;;;5.82;1.73;;;;;;;7.82;nan;102933.06;5047000;28;20112;-60
2022/03/17 09:47:41;;;;;;;7.18;1.60;;;;;;;7.84;nan;102934.09;5047627;28;20039;-60
2022/03/17 09:50:09;;;;;;;7.53;1.90;;;;;;;7.87;nan;102928.25;5047151;28;20508;-60
2022/03/17 09:52:39;;;;;;;10.95;2.00;;;;;;;7.88;nan;102933.50;5051653;28;20505;-60
2022/03/17 09:55:09;;;;;;;3.95;1.10;;;;;;;7.89;nan;102939.59;5047407;28;20363;-60
2022/03/17 09:57:35;;;;;;;7.10;1.58;;;;;;;7.93;nan;102949.38;5047624;28;20071;-59
2022/03/17 10:00:00;;;;;;;11.07;1.48;;;;;;;7.95;nan;102946.91;5047752;28;20045;-60
2022/03/17 10:02:25;;;;;;;6.70;1.50;;;;;;;7.97;nan;102955.69;5047751;28;20032;-61
2022/03/17 10:04:52;;;;;;;8.65;1.92;;;;;;;8.01;nan;102968.03;5047390;28;20022;-58
2022/03/17 10:07:18;;;;;;;6.95;2.17;;;;;;;8.04;nan;102964.00;5047481;28;20550;-62
2022/03/17 10:09:45;;;;;;;8.90;1.85;;;;;;;8.05;nan;102977.81;5047399;28;20251;-61
2022/03/17 10:12:12;;;;;;;9.68;1.83;;;;;;;8.09;nan;102984.13;5047495;28;20048;-61
2022/03/17 10:14:44;;;;;;;8.85;2.10;;;;;;;8.11;nan;102986.00;5046451;28;20032;-61
2022/03/17 10:17:31;;;;;;;7.10;1.42;;;;;;;8.10;nan;102994.56;5048132;28;20024;-61
2022/03/17 10:20:16;;;;;;;8.35;1.40;;;;;;;8.12;nan;102997.25;5047746;28;20560;-61
2022/03/17 10:22:46;;;;;;;6.18;1.85;;;;;;;8.10;nan;102999.72;5047436;28;20033;-60
2022/03/17 10:25:13;;;;;;;9.27;1.60;;;;;;;8.08;nan;103005.56;5051920;28;20029;-61
2022/03/17 10:27:40;;;;;;;5.68;1.10;;;;;;;8.09;nan;103007.34;5067287;28;20036;-61
2022/03/17 10:30:06;;;;;;;5.70;1.20;;;;;;;8.11;nan;103010.97;5048958;28;20112;-60
2022/03/17 10:32:32;;;;;;;4.10;1.00;;;;;;;8.16;nan;103017.38;5049435;28;20132;-61
2022/03/17 10:34:57;;;;;;;5.07;1.10;;;;;;;8.23;nan;103021.31;5048863;28;20103;-61
2022/03/17 10:37:24;;;;;;;5.65;1.20;;;;;;;8.30;nan;103026.19;5048023;28;20029;-61
2022/03/17 10:39:53;;;;;;;7.32;1.83;;;;;;;8.36;nan;103018.91;5046744;28;20055;-61
2022/03/17 10:42:28;;;;;;;6.22;1.63;;;;;;;8.39;nan;103038.91;5059948;28;20095;-62
2022/03/17 10:44:56;;;;;;;4.25;1.25;;;;;;;8.44;nan;103034.09;5057273;28;20496;-61
2022/03/17 10:47:27;;;;;;;4.40;1.33;;;;;;;8.44;nan;103032.41;5050917;28;20473;-61
2022/03/17 10:50:06;;;;;;;7.65;1.63;;;;;;;8.47;nan;103047.25;5050849;28;20170;-60
2022/03/17 10:52:52;;;;;;;7.03;1.48;;;;;;;8.47;nan;103047.25;5050981;28;20025;-59
2022/03/17 10:55:23;;;;;;;6.22;1.25;;;;;;;8.48;nan;103049.03;5050582;28;20504;-59
2022/03/17 10:57:49;;;;;;;8.18;1.23;;;;;;;8.52;nan;103052.00;5050658;28;20337;-60
2022/03/17 11:00:35;;;;;;;8.38;1.42;;;;;;;8.56;nan;103053.16;5049990;28;20127;-61
2022/03/17 11:03:00;;;;;;;6.30;1.73;;;;;;;8.61;nan;103058.66;5051700;28;20021;-62
2022/03/17 11:05:27;;;;;;;9.63;1.67;;;;;;;8.68;nan;103072.94;5056464;28;20106;-61
2022/03/17 11:07:54;;;;;;;6.55;1.40;;;;;;;8.70;nan;103067.13;5048028;28;20028;-60
2022/03/17 11:10:22;;;;;;;4.50;1.27;;;;;;;8.72;nan;103080.16;5048814;28;20099;-61
2022/03/17 11:12:47;;;;;;;6.70;1.40;;;;;;;8.73;nan;103080.25;5049498;28;20024;-60
2022/03/17 11:15:13;;;;;;;3.97;1.20;;;;;;;8.76;nan;103079.63;5049203;28;20029;-60
2022/03/17 11:17:43;;;;;;;4.05;1.10;;;;;;;8.79;nan;103086.69;5049284;28;20039;-60
2022/03/17 11:20:11;;;;;;;5.78;2.15;;;;;;;8.85;nan;103088.03;5048680;28;20120;-61
2022/03/17 11:22:37;;;;;;;5.82;1.25;;;;;;;8.92;nan;103092.00;5049151;28;20037;-61
2022/03/17 11:25:15;;;;;;;5.45;1.58;;;;;;;9.00;nan;103096.06;5048616;28;20032;-60
2022/03/17 11:27:47;;;;;;;5.55;1.48;;;;;;;9.09;nan;103094.94;5048750;28;20028;-61
2022/03/17 11:30:16;;;;;;;4.30;1.23;;;;;;;9.18;nan;103092.13;5048393;28;20033;-60
2022/03/17 11:32:51;;;;;;;4.65;1.40;;;;;;;9.22;nan;103102.84;5048660;28;20032;-60
2022/03/17 11:35:18;;;;;;;5.90;1.20;;;;;;;9.27;nan;103097.06;5048824;28;20039;-60
2022/03/17 11:37:44;;;;;;;5.72;1.55;;;;;;;9.29;nan;103106.75;5049345;28;20021;-61
2022/03/17 11:40:13;;;;;;;3.88;1.08;;;;;;;9.33;nan;103105.31;5047460;28;20024;-61
2022/03/17 11:42:43;;;;;;;5.15;1.17;;;;;;;9.39;nan;103107.44;5054246;28;20468;-62
2022/03/17 11:45:15;;;;;;;4.38;1.50;;;;;;;9.42;nan;103111.16;5048425;28;20029;-61
2022/03/17 11:47:52;;;;;;;3.17;1.20;;;;;;;9.45;nan;103113.97;5046345;28;20386;-61
2022/03/17 11:50:40;;;;;;;6.95;1.60;;;;;;;9.50;nan;103122.06;5049386;28;20024;-61
2022/03/17 11:53:20;;;;;;;4.50;1.30;;;;;;;9.50;nan;103122.06;5051402;28;20036;-62
2022/03/17 11:55:46;;;;;;;5.07;1.08;;;;;;;9.55;nan;103128.47;5068549;28;20020;-62